createdAt,value
2023-03-05T00:01:41.252Z,-0.22
2023-03-05T00:04:14.796Z,-0.17
2023-03-05T00:06:43.503Z,-0.14
2023-03-05T00:09:12.083Z,-0.17
2023-03-05T00:11:40.595Z,-0.19
2023-03-05T00:14:10.417Z,-0.19
2023-03-05T00:16:39.502Z,-0.14
2023-03-05T00:19:08.096Z,-0.10
2023-03-05T00:21:39.951Z,-0.01
2023-03-05T00:24:16.953Z,0.08
2023-03-05T00:26:46.382Z,0.16
2023-03-05T00:29:22.118Z,0.20
2023-03-05T00:31:50.756Z,0.25
2023-03-05T00:34:20.226Z,0.30
2023-03-05T00:36:52.754Z,0.35
2023-03-05T00:39:22.207Z,0.39
2023-03-05T00:41:51.197Z,0.43
2023-03-05T00:44:21.120Z,0.49
2023-03-05T00:46:49.633Z,0.53
2023-03-05T00:49:18.158Z,0.54
2023-03-05T00:51:46.774Z,0.58
2023-03-05T00:54:15.358Z,0.59
2023-03-05T00:56:43.812Z,0.61
2023-03-05T00:59:12.269Z,0.64
2023-03-05T01:01:40.926Z,0.64
2023-03-05T01:04:09.779Z,0.62
2023-03-05T01:06:42.808Z,0.59
2023-03-05T01:09:11.364Z,0.53
2023-03-05T01:11:40.677Z,0.46
2023-03-05T01:14:09.488Z,0.39
2023-03-05T01:16:38.233Z,0.33
2023-03-05T01:19:07.098Z,0.30
2023-03-05T01:21:37.537Z,0.30
2023-03-05T01:24:06.561Z,0.29
2023-03-05T01:26:35.399Z,0.28
2023-03-05T01:29:04.720Z,0.27
2023-03-05T01:31:33.368Z,0.25
2023-03-05T01:34:01.896Z,0.21
2023-03-05T01:36:30.472Z,0.17
2023-03-05T01:38:59.250Z,0.11
2023-03-05T01:41:27.814Z,0.06
2023-03-05T01:43:56.288Z,0.01
2023-03-05T01:46:28.323Z,-0.04
2023-03-05T01:48:58.918Z,-0.11
2023-03-05T01:51:32.136Z,-0.19
2023-03-05T01:54:03.366Z,-0.25
2023-03-05T01:56:32.027Z,-0.29
2023-03-05T01:59:05.065Z,-0.27
2023-03-05T02:01:43.718Z,-0.28
2023-03-05T02:04:16.507Z,-0.33
2023-03-05T02:06:46.883Z,-0.43
2023-03-05T02:09:15.604Z,-0.55
2023-03-05T02:11:44.285Z,-0.68
2023-03-05T02:14:13.224Z,-0.84
2023-03-05T02:16:43.105Z,-0.97
2023-03-05T02:19:13.084Z,-1.07
2023-03-05T02:21:49.585Z,-1.18
2023-03-05T02:24:36.922Z,-1.29
2023-03-05T02:27:06.543Z,-1.42
2023-03-05T02:29:37.737Z,-1.53
2023-03-05T02:32:06.574Z,-1.62
2023-03-05T02:34:36.506Z,-1.71
2023-03-05T02:37:09.214Z,-1.83
2023-03-05T02:39:38.288Z,-1.94
2023-03-05T02:42:07.344Z,-2.00
2023-03-05T02:44:36.585Z,-2.05
2023-03-05T02:47:05.324Z,-2.12
2023-03-05T02:49:34.071Z,-2.17
2023-03-05T02:52:02.501Z,-2.23
2023-03-05T02:54:31.028Z,-2.27
2023-03-05T02:56:59.502Z,-2.29
2023-03-05T02:59:28.544Z,-2.30
2023-03-05T03:01:57.055Z,-2.30
2023-03-05T03:04:26.114Z,-2.28
2023-03-05T03:06:54.769Z,-2.28
2023-03-05T03:09:23.235Z,-2.31
2023-03-05T03:11:51.716Z,-2.30
2023-03-05T03:14:21.114Z,-2.27
2023-03-05T03:16:49.610Z,-2.24
2023-03-05T03:19:18.113Z,-2.20
2023-03-05T03:21:46.570Z,-2.17
2023-03-05T03:24:15.051Z,-2.13
2023-03-05T03:26:43.596Z,-2.12
2023-03-05T03:29:12.037Z,-2.11
2023-03-05T03:31:41.910Z,-2.06
2023-03-05T03:34:10.423Z,-2.00
2023-03-05T03:36:39.244Z,-1.95
2023-03-05T03:39:10.013Z,-1.90
2023-03-05T03:41:44.277Z,-1.83
2023-03-05T03:44:13.937Z,-1.80
2023-03-05T03:46:42.479Z,-1.78
2023-03-05T03:49:33.068Z,-1.76
2023-03-05T03:52:01.523Z,-1.73
2023-03-05T03:54:30.111Z,-1.66
2023-03-05T03:56:58.622Z,-1.60
2023-03-05T03:59:27.148Z,-1.54
2023-03-05T04:01:55.726Z,-1.50
2023-03-05T04:04:24.258Z,-1.49
2023-03-05T04:06:52.742Z,-1.50
2023-03-05T04:09:21.174Z,-1.55
2023-03-05T04:11:49.667Z,-1.60
2023-03-05T04:14:18.121Z,-1.67
2023-03-05T04:16:46.641Z,-1.69
2023-03-05T04:19:15.076Z,-1.66
2023-03-05T04:21:43.674Z,-1.64
2023-03-05T04:24:12.256Z,-1.61
2023-03-05T04:26:40.713Z,-1.60
2023-03-05T04:29:09.228Z,-1.57
2023-03-05T04:31:37.649Z,-1.58
2023-03-05T04:34:06.250Z,-1.57
2023-03-05T04:36:34.940Z,-1.51
2023-03-05T04:39:04.912Z,-1.42
2023-03-05T04:41:33.453Z,-1.31
2023-03-05T04:44:02.042Z,-1.25
2023-03-05T04:46:30.658Z,-1.21
2023-03-05T04:48:59.222Z,-1.14
2023-03-05T04:51:27.666Z,-1.06
2023-03-05T04:53:56.191Z,-1.01
2023-03-05T04:56:24.667Z,-1.01
2023-03-05T04:58:53.240Z,-0.99
2023-03-05T05:01:21.869Z,-0.99
2023-03-05T05:03:50.351Z,-1.01
2023-03-05T05:06:18.790Z,-0.95
2023-03-05T05:08:47.266Z,-0.81
2023-03-05T05:11:15.711Z,-0.69
2023-03-05T05:13:44.625Z,-0.59
2023-03-05T05:16:13.304Z,-0.50
2023-03-05T05:18:42.056Z,-0.46
2023-03-05T05:21:12.504Z,-0.42
2023-03-05T05:23:41.041Z,-0.44
2023-03-05T05:26:10.434Z,-0.44
2023-03-05T05:28:38.888Z,-0.38
2023-03-05T05:31:13.667Z,-0.31
2023-03-05T05:33:45.088Z,-0.23
2023-03-05T05:36:16.648Z,-0.14
2023-03-05T05:38:45.988Z,-0.04
2023-03-05T05:41:18.289Z,0.04
2023-03-05T05:43:47.168Z,0.11
2023-03-05T05:46:19.392Z,0.17
2023-03-05T05:48:48.669Z,0.25
2023-03-05T05:51:21.848Z,0.31
2023-03-05T05:53:50.514Z,0.37
2023-03-05T05:56:19.658Z,0.41
2023-03-05T05:58:48.919Z,0.45
2023-03-05T06:01:26.480Z,0.49
2023-03-05T06:03:56.032Z,0.57
2023-03-05T06:06:27.166Z,0.62
2023-03-05T06:08:56.107Z,0.64
2023-03-05T06:11:24.718Z,0.69
2023-03-05T06:13:53.405Z,0.75
2023-03-05T06:16:25.008Z,0.81
2023-03-05T06:18:53.919Z,0.86
2023-03-05T06:21:23.444Z,0.85
2023-03-05T06:23:52.306Z,0.90
2023-03-05T06:26:22.658Z,0.96
2023-03-05T06:28:52.373Z,1.05
2023-03-05T06:31:26.015Z,1.16
2023-03-05T06:33:57.439Z,1.28
2023-03-05T06:36:26.291Z,1.37
2023-03-05T06:38:55.500Z,1.42
2023-03-05T06:41:28.279Z,1.48
2023-03-05T06:43:57.488Z,1.54
2023-03-05T06:46:29.816Z,1.59
2023-03-05T06:49:00.956Z,1.60
2023-03-05T06:51:33.288Z,1.63
2023-03-05T06:54:06.635Z,1.69
2023-03-05T06:56:39.959Z,1.69
2023-03-05T06:59:09.326Z,1.69
2023-03-05T07:01:38.092Z,1.74
2023-03-05T07:04:07.008Z,1.79
2023-03-05T07:06:38.771Z,1.83
2023-03-05T07:09:08.963Z,1.84
2023-03-05T07:11:37.461Z,1.92
2023-03-05T07:14:05.912Z,1.94
2023-03-05T07:16:35.148Z,2.02
2023-03-05T07:19:07.652Z,2.11
2023-03-05T07:21:39.560Z,2.26
2023-03-05T07:24:09.214Z,2.36
2023-03-05T07:26:37.749Z,2.41
2023-03-05T07:29:06.151Z,2.28
2023-03-05T07:31:34.693Z,2.31
2023-03-05T07:34:04.346Z,2.30
2023-03-05T07:36:35.075Z,2.36
2023-03-05T07:39:05.326Z,2.39
2023-03-05T07:41:34.044Z,2.33
2023-03-05T07:44:02.644Z,2.41
2023-03-05T07:46:33.652Z,2.49
2023-03-05T07:49:02.716Z,2.47
2023-03-05T07:51:31.315Z,2.52
2023-03-05T07:54:01.368Z,2.34
2023-03-05T07:56:35.602Z,2.10
2023-03-05T07:59:11.339Z,2.09
2023-03-05T08:01:40.489Z,2.34
2023-03-05T08:04:11.125Z,2.53
2023-03-05T08:06:42.227Z,2.60
2023-03-05T08:09:10.690Z,2.76
2023-03-05T08:11:40.575Z,2.68
2023-03-05T08:14:10.052Z,2.58
2023-03-05T08:16:40.301Z,2.64
2023-03-05T08:19:11.001Z,2.55
2023-03-05T08:21:39.465Z,2.64
2023-03-05T08:24:09.607Z,2.68
2023-03-05T08:26:39.587Z,2.79
2023-03-05T08:29:10.524Z,2.77
2023-03-05T08:31:39.893Z,2.64
2023-03-05T08:34:08.497Z,2.56
2023-03-05T08:36:36.924Z,2.56
2023-03-05T08:39:07.014Z,2.62
2023-03-05T08:41:36.043Z,2.52
2023-03-05T08:44:04.970Z,2.50
2023-03-05T08:46:33.859Z,2.66
2023-03-05T08:49:02.566Z,2.83
2023-03-05T08:51:30.987Z,2.89
2023-03-05T08:54:00.005Z,2.92
2023-03-05T08:56:31.228Z,2.88
2023-03-05T08:58:59.621Z,2.96
2023-03-05T09:01:28.298Z,3.04
2023-03-05T09:03:57.351Z,3.02
2023-03-05T09:06:27.090Z,2.99
2023-03-05T09:08:55.873Z,3.14
2023-03-05T09:11:24.346Z,3.13
2023-03-05T09:13:52.918Z,2.87
2023-03-05T09:16:21.359Z,2.65
2023-03-05T09:18:49.831Z,2.53
2023-03-05T09:21:19.062Z,2.60
2023-03-05T09:23:47.667Z,2.62
2023-03-05T09:26:19.435Z,2.66
2023-03-05T09:28:48.737Z,2.68
2023-03-05T09:31:18.086Z,2.59
2023-03-05T09:33:49.121Z,2.46
2023-03-05T09:36:28.106Z,2.65
2023-03-05T09:38:56.917Z,2.71
2023-03-05T09:41:48.985Z,2.76
2023-03-05T09:45:02.266Z,2.85
2023-03-05T09:47:44.927Z,2.94
2023-03-05T09:50:50.706Z,3.02
2023-03-05T09:53:46.862Z,2.89
2023-03-05T09:56:28.677Z,2.74
2023-03-05T09:59:12.344Z,2.64
2023-03-05T10:01:44.879Z,2.56
2023-03-05T10:04:53.469Z,2.58
2023-03-05T10:07:31.919Z,2.56
2023-03-05T10:10:10.026Z,2.41
2023-03-05T10:12:48.677Z,2.39
2023-03-05T10:15:19.948Z,2.38
2023-03-05T10:18:10.939Z,2.31
2023-03-05T10:20:51.557Z,2.32
2023-03-05T10:23:49.245Z,2.33
2023-03-05T10:27:00.603Z,2.44
2023-03-05T10:30:04.483Z,2.57
2023-03-05T10:33:08.440Z,2.46
2023-03-05T10:36:07.507Z,2.53
2023-03-05T10:39:10.621Z,2.63
2023-03-05T10:42:02.697Z,2.65
2023-03-05T10:44:54.579Z,2.65
2023-03-05T10:47:54.573Z,2.82
2023-03-05T10:50:35.106Z,2.84
2023-03-05T10:53:39.636Z,2.82
2023-03-05T10:56:12.408Z,2.80
2023-03-05T10:58:40.926Z,2.97
2023-03-05T11:01:12.488Z,3.01
2023-03-05T11:03:52.530Z,3.07
2023-03-05T11:06:33.334Z,3.11
2023-03-05T11:09:29.715Z,3.13
2023-03-05T11:12:24.373Z,3.19
2023-03-05T11:15:04.169Z,3.36
2023-03-05T11:17:39.392Z,3.39
2023-03-05T11:20:29.764Z,3.25
2023-03-05T11:23:24.295Z,3.09
2023-03-05T11:25:55.759Z,2.98
2023-03-05T11:28:33.456Z,2.97
2023-03-05T11:31:16.082Z,2.83
2023-03-05T11:34:04.239Z,2.80
2023-03-05T11:36:38.982Z,2.98
2023-03-05T11:39:10.423Z,3.21
2023-03-05T11:41:55.075Z,3.17
2023-03-05T11:44:36.286Z,3.13
2023-03-05T11:47:20.394Z,3.22
2023-03-05T11:49:52.555Z,3.03
2023-03-05T11:52:28.180Z,2.92
2023-03-05T11:55:04.260Z,2.93
2023-03-05T11:58:01.654Z,2.90
2023-03-05T12:00:34.884Z,3.01
2023-03-05T12:03:33.418Z,3.06
2023-03-05T12:06:23.411Z,3.18
2023-03-05T12:08:57.637Z,3.17
2023-03-05T12:11:31.682Z,3.03
2023-03-05T12:14:24.602Z,3.02
2023-03-05T12:17:01.189Z,3.03
2023-03-05T12:20:18.976Z,3.11
2023-03-05T12:22:48.032Z,3.27
2023-03-05T12:25:48.118Z,3.41
2023-03-05T12:28:46.191Z,3.46
2023-03-05T12:31:39.586Z,3.34
2023-03-05T12:34:39.453Z,3.21
2023-03-05T12:37:35.395Z,3.13
2023-03-05T12:40:13.005Z,2.85
2023-03-05T12:43:01.384Z,3.07
2023-03-05T12:45:40.276Z,3.21
2023-03-05T12:48:12.904Z,3.16
2023-03-05T12:50:43.254Z,3.17
2023-03-05T12:53:20.741Z,3.24
2023-03-05T12:56:00.264Z,3.37
2023-03-05T12:58:58.105Z,3.42
2023-03-05T13:01:41.165Z,3.44
2023-03-05T13:04:21.535Z,3.36
2023-03-05T13:07:04.430Z,3.34
2023-03-05T13:09:36.628Z,3.35
2023-03-05T13:12:13.180Z,3.31
2023-03-05T13:14:47.265Z,3.28
2023-03-05T13:17:40.826Z,3.12
2023-03-05T13:20:40.505Z,3.00
2023-03-05T13:23:27.246Z,2.92
2023-03-05T13:26:21.053Z,2.95
2023-03-05T13:29:16.156Z,2.84
2023-03-05T13:32:00.865Z,2.53
2023-03-05T13:34:44.544Z,2.43
2023-03-05T13:37:24.488Z,2.53
2023-03-05T13:39:58.939Z,2.60
2023-03-05T13:42:32.574Z,2.60
2023-03-05T13:45:20.545Z,2.58
2023-03-05T13:48:03.045Z,2.60
2023-03-05T13:50:38.147Z,2.65
2023-03-05T13:53:16.942Z,2.65
2023-03-05T13:55:48.182Z,2.67
2023-03-05T13:58:56.574Z,2.66
2023-03-05T14:01:34.437Z,2.61
2023-03-05T14:04:15.589Z,2.63
2023-03-05T14:06:55.222Z,2.68
2023-03-05T14:09:32.018Z,2.69
2023-03-05T14:12:05.722Z,2.68
2023-03-05T14:14:39.024Z,2.63
2023-03-05T14:17:42.942Z,2.58
2023-03-05T14:20:14.821Z,2.57
2023-03-05T14:22:46.832Z,2.66
2023-03-05T14:25:47.898Z,2.70
2023-03-05T14:28:16.660Z,2.66
2023-03-05T14:30:52.377Z,2.62
2023-03-05T14:33:29.874Z,2.61
2023-03-05T14:36:01.507Z,2.61
2023-03-05T14:38:33.933Z,2.58
2023-03-05T14:41:35.915Z,2.57
2023-03-05T14:44:18.911Z,2.64
2023-03-05T14:46:50.706Z,2.56
2023-03-05T14:49:19.438Z,2.52
2023-03-05T14:51:48.135Z,2.58
2023-03-05T14:54:26.147Z,2.63
2023-03-05T14:56:55.037Z,2.64
2023-03-05T14:59:23.922Z,2.65
2023-03-05T15:01:52.972Z,2.64
2023-03-05T15:04:22.255Z,2.62
2023-03-05T15:06:52.090Z,2.66
2023-03-05T15:09:21.523Z,2.70
2023-03-05T15:11:50.428Z,2.66
2023-03-05T15:14:19.591Z,2.62
2023-03-05T15:16:49.150Z,2.58
2023-03-05T15:19:18.161Z,2.53
2023-03-05T15:21:47.193Z,2.51
2023-03-05T15:24:16.303Z,2.50
2023-03-05T15:26:45.414Z,2.47
2023-03-05T15:29:14.346Z,2.47
2023-03-05T15:31:43.363Z,2.49
2023-03-05T15:34:12.592Z,2.49
2023-03-05T15:36:41.360Z,2.48
2023-03-05T15:39:10.287Z,2.44
2023-03-05T15:41:39.262Z,2.41
2023-03-05T15:44:08.057Z,2.38
2023-03-05T15:46:37.066Z,2.34
2023-03-05T15:49:05.886Z,2.32
2023-03-05T15:51:34.958Z,2.31
2023-03-05T15:54:03.909Z,2.27
2023-03-05T15:56:32.935Z,2.24
2023-03-05T15:59:01.739Z,2.22
2023-03-05T16:01:30.612Z,2.20
2023-03-05T16:03:59.497Z,2.17
2023-03-05T16:06:28.741Z,2.13
2023-03-05T16:09:05.890Z,2.08
2023-03-05T16:11:40.277Z,2.04
2023-03-05T16:14:10.996Z,2.00
2023-03-05T16:16:40.086Z,1.97
2023-03-05T16:19:13.657Z,1.93
2023-03-05T16:21:42.793Z,1.88
2023-03-05T16:24:11.712Z,1.84
2023-03-05T16:26:41.728Z,1.82
2023-03-05T16:29:12.429Z,1.79
2023-03-05T16:31:43.368Z,1.75
2023-03-05T16:34:14.410Z,1.70
2023-03-05T16:36:52.764Z,1.66
2023-03-05T16:39:22.380Z,1.62
2023-03-05T16:41:51.303Z,1.59
2023-03-05T16:44:21.427Z,1.56
2023-03-05T16:46:53.580Z,1.52
2023-03-05T16:49:22.912Z,1.49
2023-03-05T16:51:52.045Z,1.46
2023-03-05T16:54:22.318Z,1.43
2023-03-05T16:56:51.766Z,1.41
2023-03-05T16:59:20.968Z,1.39
2023-03-05T17:01:50.647Z,1.36
2023-03-05T17:04:20.192Z,1.35
2023-03-05T17:06:49.701Z,1.35
2023-03-05T17:09:23.974Z,1.35
2023-03-05T17:11:54.560Z,1.35
2023-03-05T17:14:23.672Z,1.35
2023-03-05T17:16:53.235Z,1.34
2023-03-05T17:19:22.671Z,1.34
2023-03-05T17:21:52.590Z,1.33
2023-03-05T17:24:22.796Z,1.32
2023-03-05T17:26:52.140Z,1.30
2023-03-05T17:29:22.784Z,1.28
2023-03-05T17:31:55.482Z,1.27
2023-03-05T17:34:35.732Z,1.25
2023-03-05T17:37:05.992Z,1.25
2023-03-05T17:39:35.324Z,1.23
2023-03-05T17:42:04.670Z,1.22
2023-03-05T17:44:33.843Z,1.23
2023-03-05T17:47:03.090Z,1.22
2023-03-05T17:49:32.344Z,1.23
2023-03-05T17:52:01.427Z,1.21
2023-03-05T17:54:31.093Z,1.21
2023-03-05T17:57:01.136Z,1.23
2023-03-05T17:59:30.262Z,1.26
2023-03-05T18:01:59.584Z,1.27
2023-03-05T18:04:28.858Z,1.26
2023-03-05T18:06:57.732Z,1.25
2023-03-05T18:09:26.955Z,1.25
2023-03-05T18:11:56.638Z,1.26
2023-03-05T18:14:25.726Z,1.24
2023-03-05T18:16:55.101Z,1.23
2023-03-05T18:19:25.420Z,1.22
2023-03-05T18:21:54.579Z,1.23
2023-03-05T18:24:23.700Z,1.22
2023-03-05T18:26:52.848Z,1.22
2023-03-05T18:29:21.833Z,1.22
2023-03-05T18:31:50.720Z,1.23
2023-03-05T18:34:21.163Z,1.23
2023-03-05T18:36:49.940Z,1.24
2023-03-05T18:39:20.843Z,1.25
2023-03-05T18:41:49.604Z,1.26
2023-03-05T18:44:20.452Z,1.25
2023-03-05T18:46:49.770Z,1.26
2023-03-05T18:49:18.637Z,1.26
2023-03-05T18:51:47.888Z,1.26
2023-03-05T18:54:16.763Z,1.26
2023-03-05T18:56:46.135Z,1.27
2023-03-05T18:59:15.354Z,1.27
2023-03-05T19:01:44.777Z,1.26
2023-03-05T19:04:13.699Z,1.25
2023-03-05T19:06:42.657Z,1.24
2023-03-05T19:10:03.973Z,1.23
2023-03-05T19:12:35.538Z,1.21
2023-03-05T19:15:24.832Z,1.25
2023-03-05T19:17:55.238Z,1.29
2023-03-05T19:20:24.232Z,1.35
2023-03-05T19:22:56.074Z,1.39
2023-03-05T19:25:25.429Z,1.41
2023-03-05T19:27:54.287Z,1.43
2023-03-05T19:30:23.491Z,1.43
2023-03-05T19:32:52.401Z,1.43
2023-03-05T19:35:21.341Z,1.43
2023-03-05T19:37:50.243Z,1.39
2023-03-05T19:40:19.784Z,1.37
2023-03-05T19:42:48.786Z,1.35
2023-03-05T19:45:17.748Z,1.32
2023-03-05T19:47:46.668Z,1.32
2023-03-05T19:50:16.518Z,1.30
2023-03-05T19:52:45.641Z,1.28
2023-03-05T19:55:14.759Z,1.28
2023-03-05T19:57:43.851Z,1.28
2023-03-05T20:00:13.658Z,1.26
2023-03-05T20:02:42.766Z,1.24
2023-03-05T20:05:11.999Z,1.23
2023-03-05T20:07:41.330Z,1.20
2023-03-05T20:10:11.636Z,1.16
2023-03-05T20:12:41.057Z,1.13
2023-03-05T20:15:11.040Z,1.09
2023-03-05T20:17:40.673Z,1.05
2023-03-05T20:20:11.641Z,1.02
2023-03-05T20:22:46.905Z,1.00
2023-03-05T20:25:21.732Z,0.96
2023-03-05T20:27:51.290Z,0.93
2023-03-05T20:30:20.598Z,0.91
2023-03-05T20:32:49.759Z,0.90
2023-03-05T20:35:19.792Z,0.87
2023-03-05T20:38:25.852Z,0.85
2023-03-05T20:41:01.164Z,0.82
2023-03-05T20:43:45.373Z,0.78
2023-03-05T20:46:29.836Z,0.71
2023-03-05T20:49:02.103Z,0.66
2023-03-05T20:51:39.090Z,0.63
2023-03-05T20:54:13.718Z,0.61
2023-03-05T20:56:42.833Z,0.59
2023-03-05T20:59:12.032Z,0.61
2023-03-05T21:01:41.415Z,0.65
2023-03-05T21:04:10.589Z,0.69
2023-03-05T21:06:39.732Z,0.74
2023-03-05T21:09:08.836Z,0.75
2023-03-05T21:11:38.768Z,0.78
2023-03-05T21:14:08.439Z,0.78
2023-03-05T21:16:37.881Z,0.77
2023-03-05T21:19:07.302Z,0.76
2023-03-05T21:21:36.593Z,0.73
2023-03-05T21:24:06.614Z,0.69
2023-03-05T21:26:36.154Z,0.65
2023-03-05T21:29:05.542Z,0.66
2023-03-05T21:31:35.166Z,0.69
2023-03-05T21:34:04.639Z,0.69
2023-03-05T21:36:33.817Z,0.71
2023-03-05T21:39:03.243Z,0.71
2023-03-05T21:41:32.585Z,0.70
2023-03-05T21:44:04.667Z,0.67
2023-03-05T21:46:35.840Z,0.62
2023-03-05T21:49:05.064Z,0.58
2023-03-05T21:52:14.468Z,0.52
2023-03-05T21:54:43.786Z,0.43
2023-03-05T21:57:13.528Z,0.38
2023-03-05T21:59:43.531Z,0.36
2023-03-05T22:02:15.099Z,0.40
2023-03-05T22:04:46.801Z,0.43
2023-03-05T22:07:18.312Z,0.46
2023-03-05T22:09:47.760Z,0.47
2023-03-05T22:13:12.833Z,0.50
2023-03-05T22:15:50.305Z,0.49
2023-03-05T22:18:23.070Z,0.49
2023-03-05T22:20:53.293Z,0.48
2023-03-05T22:23:24.934Z,0.45
2023-03-05T22:26:07.254Z,0.42
2023-03-05T22:28:39.661Z,0.39
2023-03-05T22:31:10.807Z,0.35
2023-03-05T22:33:39.972Z,0.37
2023-03-05T22:36:12.759Z,0.41
2023-03-05T22:38:43.402Z,0.53
2023-03-05T22:41:15.957Z,0.70
2023-03-05T22:43:45.310Z,0.81
2023-03-05T22:46:24.599Z,0.92
2023-03-05T22:48:54.599Z,1.03
2023-03-05T22:51:24.323Z,1.13
2023-03-05T22:53:53.669Z,1.20
2023-03-05T22:56:24.016Z,1.25
2023-03-05T22:58:53.125Z,1.26
2023-03-05T23:01:26.200Z,1.24
2023-03-05T23:04:50.134Z,1.21
2023-03-05T23:07:30.166Z,1.15
2023-03-05T23:10:20.278Z,1.12
2023-03-05T23:12:52.888Z,1.08
2023-03-05T23:15:34.608Z,1.06
2023-03-05T23:18:05.387Z,1.04
2023-03-05T23:20:37.621Z,1.02
2023-03-05T23:23:07.055Z,1.01
2023-03-05T23:25:38.122Z,0.99
2023-03-05T23:28:07.595Z,0.95
2023-03-05T23:30:40.105Z,0.91
2023-03-05T23:33:19.283Z,0.88
2023-03-05T23:35:57.196Z,0.95
2023-03-05T23:38:29.434Z,1.07
2023-03-05T23:41:01.478Z,1.24
2023-03-05T23:43:31.406Z,1.31
2023-03-05T23:46:02.075Z,1.33
2023-03-05T23:48:31.975Z,1.35
2023-03-05T23:51:00.982Z,1.36
2023-03-05T23:53:33.155Z,1.35
2023-03-05T23:56:02.421Z,1.31
2023-03-05T23:58:31.349Z,1.30
